DABS

Cheikh Larbi Tébessi Airport

Tébessi, Algeria
METAR DABS 260400Z 17004KT CAVOK 19/11 Q1018
Observed Flight Rules
May-26 @ 04:00 UTC (22 minutes ago) Visual Flight Rules
Wind Visibility Clouds
170° at 4 knots 10,000+ meters
  • Clear skies
Temperatures Readings
Current 19°C / 66°F
Dewpoint 11°C / 52°F
Humidity 60%
Altimeter 30.06" Hg
Pressure 1018 hPa
Elevation 813
METAR DABS 260400Z 17004KT CAVOK 19/11 Q1018
Observed Flight Rules
May-26 @ 04:00 UTC
(22 minutes ago)
VFR
Wind Visibility
170° at 4 knots 10,000+ meters
Clouds
  • Clear skies
Temperature Dewpoint
19°C / 66°F 11°C / 52°F
Humidity Altimeter Pressure
60% 30.06" Hg 1018 hPa